sensor_id;sensor_type;location;lat;lon;timestamp;pressure;altitude;pressure_sealevel;temperature
77414;BMP280;66486;49.992;19.164;2023-02-28T00:00:36;100047.56;;;1.16
77414;BMP280;66486;49.992;19.164;2023-02-28T00:03:14;100047.22;;;1.18
77414;BMP280;66486;49.992;19.164;2023-02-28T00:05:40;100055.81;;;1.23
77414;BMP280;66486;49.992;19.164;2023-02-28T00:08:08;100049.56;;;1.28
77414;BMP280;66486;49.992;19.164;2023-02-28T00:10:34;100061.56;;;1.25
77414;BMP280;66486;49.992;19.164;2023-02-28T00:13:04;100069.06;;;1.15
77414;BMP280;66486;49.992;19.164;2023-02-28T00:15:30;100064.88;;;1.14
77414;BMP280;66486;49.992;19.164;2023-02-28T00:17:57;100064.38;;;1.20
77414;BMP280;66486;49.992;19.164;2023-02-28T00:20:23;100072.16;;;1.25
77414;BMP280;66486;49.992;19.164;2023-02-28T00:22:52;100069.81;;;0.81
77414;BMP280;66486;49.992;19.164;2023-02-28T00:25:21;100076.69;;;0.82
77414;BMP280;66486;49.992;19.164;2023-02-28T00:27:48;100084.50;;;0.87
77414;BMP280;66486;49.992;19.164;2023-02-28T00:30:20;100081.06;;;0.95
77414;BMP280;66486;49.992;19.164;2023-02-28T00:32:46;100073.91;;;1.04
77414;BMP280;66486;49.992;19.164;2023-02-28T00:35:12;100079.50;;;0.94
77414;BMP280;66486;49.992;19.164;2023-02-28T00:37:39;100082.13;;;0.85
77414;BMP280;66486;49.992;19.164;2023-02-28T00:40:06;100083.72;;;0.86
77414;BMP280;66486;49.992;19.164;2023-02-28T00:42:35;100075.78;;;0.95
77414;BMP280;66486;49.992;19.164;2023-02-28T00:45:02;100075.78;;;1.12
77414;BMP280;66486;49.992;19.164;2023-02-28T00:47:30;100072.47;;;1.15
77414;BMP280;66486;49.992;19.164;2023-02-28T00:49:56;100076.84;;;0.94
77414;BMP280;66486;49.992;19.164;2023-02-28T00:52:22;100076.22;;;0.80
77414;BMP280;66486;49.992;19.164;2023-02-28T00:54:48;100078.56;;;0.73
77414;BMP280;66486;49.992;19.164;2023-02-28T00:57:14;100065.31;;;0.81
77414;BMP280;66486;49.992;19.164;2023-02-28T00:59:40;100065.63;;;0.88
77414;BMP280;66486;49.992;19.164;2023-02-28T01:02:06;100061.28;;;1.01
77414;BMP280;66486;49.992;19.164;2023-02-28T01:04:32;100065.94;;;0.95
77414;BMP280;66486;49.992;19.164;2023-02-28T01:06:58;100055.66;;;0.77
77414;BMP280;66486;49.992;19.164;2023-02-28T01:09:24;100061.28;;;0.84
77414;BMP280;66486;49.992;19.164;2023-02-28T01:11:50;100060.19;;;0.76
77414;BMP280;66486;49.992;19.164;2023-02-28T01:14:17;100059.09;;;0.94
77414;BMP280;66486;49.992;19.164;2023-02-28T01:16:43;100061.13;;;1.06
77414;BMP280;66486;49.992;19.164;2023-02-28T01:19:10;100053.00;;;1.11
77414;BMP280;66486;49.992;19.164;2023-02-28T01:21:36;100058.00;;;1.13
77414;BMP280;66486;49.992;19.164;2023-02-28T01:24:03;100056.56;;;1.32
77414;BMP280;66486;49.992;19.164;2023-02-28T01:26:30;100057.53;;;1.28
77414;BMP280;66486;49.992;19.164;2023-02-28T01:28:56;100044.13;;;1.24
77414;BMP280;66486;49.992;19.164;2023-02-28T01:31:23;100053.31;;;1.18
77414;BMP280;66486;49.992;19.164;2023-02-28T01:33:49;100047.25;;;1.09
77414;BMP280;66486;49.992;19.164;2023-02-28T01:36:20;100055.16;;;1.18
77414;BMP280;66486;49.992;19.164;2023-02-28T01:38:47;100040.53;;;1.12
77414;BMP280;66486;49.992;19.164;2023-02-28T01:41:17;100038.66;;;1.04
77414;BMP280;66486;49.992;19.164;2023-02-28T01:46:10;100040.69;;;1.07
77414;BMP280;66486;49.992;19.164;2023-02-28T01:48:40;100045.53;;;0.96
77414;BMP280;66486;49.992;19.164;2023-02-28T01:51:11;100046.78;;;0.90
77414;BMP280;66486;49.992;19.164;2023-02-28T01:53:49;100036.66;;;0.92
77414;BMP280;66486;49.992;19.164;2023-02-28T01:56:21;100035.09;;;0.74
77414;BMP280;66486;49.992;19.164;2023-02-28T01:58:51;100041.31;;;0.78
77414;BMP280;66486;49.992;19.164;2023-02-28T02:01:19;100037.13;;;0.77
77414;BMP280;66486;49.992;19.164;2023-02-28T02:03:50;100040.22;;;0.79
77414;BMP280;66486;49.992;19.164;2023-02-28T02:06:22;100043.66;;;0.71
77414;BMP280;66486;49.992;19.164;2023-02-28T02:08:48;100049.41;;;0.64
77414;BMP280;66486;49.992;19.164;2023-02-28T02:11:18;100040.50;;;0.51
77414;BMP280;66486;49.992;19.164;2023-02-28T02:14:01;100041.31;;;0.43
77414;BMP280;66486;49.992;19.164;2023-02-28T02:16:37;100042.22;;;0.56
77414;BMP280;66486;49.992;19.164;2023-02-28T02:25:03;100037.88;;;0.51
77414;BMP280;66486;49.992;19.164;2023-02-28T02:27:58;100041.88;;;0.40
77414;BMP280;66486;49.992;19.164;2023-02-28T02:30:46;100037.72;;;0.31
77414;BMP280;66486;49.992;19.164;2023-02-28T02:38:48;100028.22;;;0.30
77414;BMP280;66486;49.992;19.164;2023-02-28T02:41:25;100023.38;;;0.40
77414;BMP280;66486;49.992;19.164;2023-02-28T02:46:35;100032.56;;;0.43
77414;BMP280;66486;49.992;19.164;2023-02-28T02:49:06;100033.19;;;0.40
77414;BMP280;66486;49.992;19.164;2023-02-28T02:51:34;100027.75;;;0.45
77414;BMP280;66486;49.992;19.164;2023-02-28T02:54:05;100031.63;;;0.30
77414;BMP280;66486;49.992;19.164;2023-02-28T02:56:34;100033.59;;;0.08
77414;BMP280;66486;49.992;19.164;2023-02-28T02:59:08;100025.03;;;0.02
77414;BMP280;66486;49.992;19.164;2023-02-28T03:01:37;100025.97;;;0.06
77414;BMP280;66486;49.992;19.164;2023-02-28T03:04:09;100038.63;;;0.26
77414;BMP280;66486;49.992;19.164;2023-02-28T03:06:35;100026.94;;;0.19
77414;BMP280;66486;49.992;19.164;2023-02-28T03:09:01;100030.09;;;0.29
77414;BMP280;66486;49.992;19.164;2023-02-28T03:11:28;100032.09;;;0.24
77414;BMP280;66486;49.992;19.164;2023-02-28T03:17:10;100025.47;;;-0.35
77414;BMP280;66486;49.992;19.164;2023-02-28T03:20:04;100025.88;;;-0.73
77414;BMP280;66486;49.992;19.164;2023-02-28T03:23:16;100031.94;;;-0.50
77414;BMP280;66486;49.992;19.164;2023-02-28T03:26:04;100032.09;;;-0.47
77414;BMP280;66486;49.992;19.164;2023-02-28T03:28:40;100031.63;;;-0.49
77414;BMP280;66486;49.992;19.164;2023-02-28T03:34:03;100035.25;;;-0.14
77414;BMP280;66486;49.992;19.164;2023-02-28T03:36:41;100046.63;;;-0.05
77414;BMP280;66486;49.992;19.164;2023-02-28T03:39:16;100046.66;;;0.04
77414;BMP280;66486;49.992;19.164;2023-02-28T03:41:50;100038.56;;;0.00
77414;BMP280;66486;49.992;19.164;2023-02-28T03:44:45;100048.66;;;-0.02
77414;BMP280;66486;49.992;19.164;2023-02-28T03:47:13;100042.44;;;-0.06
77414;BMP280;66486;49.992;19.164;2023-02-28T03:49:45;100043.81;;;-0.08
77414;BMP280;66486;49.992;19.164;2023-02-28T03:52:14;100053.22;;;-0.24
77414;BMP280;66486;49.992;19.164;2023-02-28T03:54:56;100053.44;;;-0.12
77414;BMP280;66486;49.992;19.164;2023-02-28T04:00:24;100057.06;;;-0.08
77414;BMP280;66486;49.992;19.164;2023-02-28T04:02:47;100057.66;;;-0.11
77414;BMP280;66486;49.992;19.164;2023-02-28T04:05:19;100061.38;;;-0.12
77414;BMP280;66486;49.992;19.164;2023-02-28T04:07:46;100065.06;;;-0.22
77414;BMP280;66486;49.992;19.164;2023-02-28T04:10:12;100067.97;;;-0.32
77414;BMP280;66486;49.992;19.164;2023-02-28T04:12:39;100065.44;;;-0.37
77414;BMP280;66486;49.992;19.164;2023-02-28T04:15:05;100067.28;;;-0.37
77414;BMP280;66486;49.992;19.164;2023-02-28T04:17:31;100060.53;;;-0.52
77414;BMP280;66486;49.992;19.164;2023-02-28T04:19:57;100066.28;;;-0.50
77414;BMP280;66486;49.992;19.164;2023-02-28T04:22:23;100065.66;;;-0.47
77414;BMP280;66486;49.992;19.164;2023-02-28T04:24:52;100065.50;;;-0.51
77414;BMP280;66486;49.992;19.164;2023-02-28T04:27:20;100069.72;;;-0.50
77414;BMP280;66486;49.992;19.164;2023-02-28T04:29:46;100068.50;;;-0.43
77414;BMP280;66486;49.992;19.164;2023-02-28T04:32:13;100073.69;;;-0.61
77414;BMP280;66486;49.992;19.164;2023-02-28T04:34:39;100072.25;;;-0.67
77414;BMP280;66486;49.992;19.164;2023-02-28T04:37:05;100062.75;;;-0.90
77414;BMP280;66486;49.992;19.164;2023-02-28T04:39:35;100069.44;;;-1.06
77414;BMP280;66486;49.992;19.164;2023-02-28T04:42:03;100072.91;;;-0.83
77414;BMP280;66486;49.992;19.164;2023-02-28T04:44:29;100080.41;;;-0.77
77414;BMP280;66486;49.992;19.164;2023-02-28T04:46:55;100080.53;;;-0.60
77414;BMP280;66486;49.992;19.164;2023-02-28T04:49:21;100068.94;;;-0.50
77414;BMP280;66486;49.992;19.164;2023-02-28T04:51:47;100079.31;;;-0.54
77414;BMP280;66486;49.992;19.164;2023-02-28T04:54:13;100074.47;;;-0.82
77414;BMP280;66486;49.992;19.164;2023-02-28T04:56:39;100076.69;;;-0.76
77414;BMP280;66486;49.992;19.164;2023-02-28T04:59:05;100074.56;;;-0.87
77414;BMP280;66486;49.992;19.164;2023-02-28T05:01:32;100072.66;;;-0.95
77414;BMP280;66486;49.992;19.164;2023-02-28T05:04:00;100073.22;;;-1.21
77414;BMP280;66486;49.992;19.164;2023-02-28T05:06:29;100080.94;;;-1.11
77414;BMP280;66486;49.992;19.164;2023-02-28T05:08:56;100082.13;;;-0.94
77414;BMP280;66486;49.992;19.164;2023-02-28T05:11:30;100086.16;;;-0.97
77414;BMP280;66486;49.992;19.164;2023-02-28T05:14:11;100073.78;;;-1.10
77414;BMP280;66486;49.992;19.164;2023-02-28T05:16:37;100083.56;;;-1.11
77414;BMP280;66486;49.992;19.164;2023-02-28T05:19:03;100078.69;;;-1.17
77414;BMP280;66486;49.992;19.164;2023-02-28T05:21:35;100077.50;;;-1.11
77414;BMP280;66486;49.992;19.164;2023-02-28T05:24:04;100085.41;;;-1.11
77414;BMP280;66486;49.992;19.164;2023-02-28T05:26:34;100082.78;;;-1.11
77414;BMP280;66486;49.992;19.164;2023-02-28T05:29:00;100085.09;;;-0.96
77414;BMP280;66486;49.992;19.164;2023-02-28T05:31:26;100087.00;;;-1.10
77414;BMP280;66486;49.992;19.164;2023-02-28T05:33:52;100084.69;;;-1.25
77414;BMP280;66486;49.992;19.164;2023-02-28T05:36:19;100089.47;;;-1.41
77414;BMP280;66486;49.992;19.164;2023-02-28T05:38:49;100101.09;;;-1.42
77414;BMP280;66486;49.992;19.164;2023-02-28T05:41:17;100098.03;;;-1.35
77414;BMP280;66486;49.992;19.164;2023-02-28T05:43:44;100097.19;;;-1.45
77414;BMP280;66486;49.992;19.164;2023-02-28T05:46:11;100100.69;;;-1.49
77414;BMP280;66486;49.992;19.164;2023-02-28T05:48:39;100110.09;;;-1.57
77414;BMP280;66486;49.992;19.164;2023-02-28T05:51:06;100114.50;;;-1.66
77414;BMP280;66486;49.992;19.164;2023-02-28T05:53:33;100116.34;;;-1.80
77414;BMP280;66486;49.992;19.164;2023-02-28T05:56:00;100112.72;;;-1.57
77414;BMP280;66486;49.992;19.164;2023-02-28T05:58:26;100122.88;;;-1.50
77414;BMP280;66486;49.992;19.164;2023-02-28T06:01:00;100119.84;;;-1.57
77414;BMP280;66486;49.992;19.164;2023-02-28T06:03:27;100121.50;;;-1.61
77414;BMP280;66486;49.992;19.164;2023-02-28T06:05:53;100125.03;;;-1.38
77414;BMP280;66486;49.992;19.164;2023-02-28T06:08:19;100124.38;;;-1.30
77414;BMP280;66486;49.992;19.164;2023-02-28T06:10:45;100138.72;;;-1.23
77414;BMP280;66486;49.992;19.164;2023-02-28T06:13:11;100126.41;;;-1.41
77414;BMP280;66486;49.992;19.164;2023-02-28T06:15:38;100139.69;;;-1.60
77414;BMP280;66486;49.992;19.164;2023-02-28T06:18:05;100137.88;;;-1.92
77414;BMP280;66486;49.992;19.164;2023-02-28T06:20:31;100135.38;;;-1.83
77414;BMP280;66486;49.992;19.164;2023-02-28T06:22:58;100134.66;;;-1.88
77414;BMP280;66486;49.992;19.164;2023-02-28T06:25:27;100134.81;;;-1.80
77414;BMP280;66486;49.992;19.164;2023-02-28T06:27:54;100143.41;;;-1.61
77414;BMP280;66486;49.992;19.164;2023-02-28T06:30:21;100135.41;;;-1.56
77414;BMP280;66486;49.992;19.164;2023-02-28T06:32:50;100140.78;;;-1.47
77414;BMP280;66486;49.992;19.164;2023-02-28T06:35:17;100138.63;;;-1.45
77414;BMP280;66486;49.992;19.164;2023-02-28T06:37:43;100138.69;;;-1.50
77414;BMP280;66486;49.992;19.164;2023-02-28T06:40:10;100145.28;;;-1.48
77414;BMP280;66486;49.992;19.164;2023-02-28T06:42:37;100151.41;;;-1.52
77414;BMP280;66486;49.992;19.164;2023-02-28T06:45:03;100153.16;;;-1.34
77414;BMP280;66486;49.992;19.164;2023-02-28T06:47:36;100149.50;;;-1.33
77414;BMP280;66486;49.992;19.164;2023-02-28T06:50:03;100152.78;;;-1.41
77414;BMP280;66486;49.992;19.164;2023-02-28T06:52:29;100154.84;;;-1.52
77414;BMP280;66486;49.992;19.164;2023-02-28T06:54:55;100159.91;;;-1.69
77414;BMP280;66486;49.992;19.164;2023-02-28T06:57:33;100164.03;;;-1.63
77414;BMP280;66486;49.992;19.164;2023-02-28T07:00:00;100156.00;;;-1.44
77414;BMP280;66486;49.992;19.164;2023-02-28T07:02:27;100160.88;;;-1.65
77414;BMP280;66486;49.992;19.164;2023-02-28T07:04:53;100168.00;;;-1.79
77414;BMP280;66486;49.992;19.164;2023-02-28T07:07:20;100164.56;;;-1.79
77414;BMP280;66486;49.992;19.164;2023-02-28T07:09:45;100176.09;;;-1.75
77414;BMP280;66486;49.992;19.164;2023-02-28T07:12:12;100171.28;;;-1.87
77414;BMP280;66486;49.992;19.164;2023-02-28T07:14:37;100171.34;;;-1.60
77414;BMP280;66486;49.992;19.164;2023-02-28T07:17:04;100179.66;;;-1.39
77414;BMP280;66486;49.992;19.164;2023-02-28T07:19:32;100176.34;;;-1.45
77414;BMP280;66486;49.992;19.164;2023-02-28T07:21:58;100178.53;;;-1.33
77414;BMP280;66486;49.992;19.164;2023-02-28T07:24:23;100174.69;;;-1.13
77414;BMP280;66486;49.992;19.164;2023-02-28T07:26:53;100178.22;;;-1.18
77414;BMP280;66486;49.992;19.164;2023-02-28T07:29:19;100180.06;;;-1.18
77414;BMP280;66486;49.992;19.164;2023-02-28T07:31:45;100182.34;;;-1.25
77414;BMP280;66486;49.992;19.164;2023-02-28T07:34:13;100183.19;;;-1.16
77414;BMP280;66486;49.992;19.164;2023-02-28T07:36:39;100190.34;;;-1.03
77414;BMP280;66486;49.992;19.164;2023-02-28T07:39:05;100184.56;;;-1.05
77414;BMP280;66486;49.992;19.164;2023-02-28T07:41:31;100186.91;;;-1.04
77414;BMP280;66486;49.992;19.164;2023-02-28T07:43:59;100181.22;;;-0.97
77414;BMP280;66486;49.992;19.164;2023-02-28T07:46:26;100177.66;;;-0.79
77414;BMP280;66486;49.992;19.164;2023-02-28T07:48:52;100184.53;;;-0.56
77414;BMP280;66486;49.992;19.164;2023-02-28T07:51:20;100195.59;;;-0.54
77414;BMP280;66486;49.992;19.164;2023-02-28T07:53:46;100195.25;;;-0.38
77414;BMP280;66486;49.992;19.164;2023-02-28T07:56:12;100193.28;;;-0.11
77414;BMP280;66486;49.992;19.164;2023-02-28T07:58:38;100190.34;;;-0.09
77414;BMP280;66486;49.992;19.164;2023-02-28T08:01:06;100195.91;;;-0.11
77414;BMP280;66486;49.992;19.164;2023-02-28T08:03:32;100189.09;;;0.19
77414;BMP280;66486;49.992;19.164;2023-02-28T08:05:58;100189.69;;;0.56
77414;BMP280;66486;49.992;19.164;2023-02-28T08:08:24;100191.47;;;0.69
77414;BMP280;66486;49.992;19.164;2023-02-28T08:11:01;100193.66;;;0.75
77414;BMP280;66486;49.992;19.164;2023-02-28T08:13:28;100194.94;;;0.86
77414;BMP280;66486;49.992;19.164;2023-02-28T08:15:55;100196.06;;;0.94
77414;BMP280;66486;49.992;19.164;2023-02-28T08:18:22;100195.28;;;0.93
77414;BMP280;66486;49.992;19.164;2023-02-28T08:20:49;100187.97;;;1.08
77414;BMP280;66486;49.992;19.164;2023-02-28T08:23:15;100194.41;;;1.24
77414;BMP280;66486;49.992;19.164;2023-02-28T08:25:41;100194.84;;;1.43
77414;BMP280;66486;49.992;19.164;2023-02-28T08:28:07;100178.75;;;1.39
77414;BMP280;66486;49.992;19.164;2023-02-28T08:30:33;100188.00;;;1.42
77414;BMP280;66486;49.992;19.164;2023-02-28T08:32:59;100191.72;;;1.67
77414;BMP280;66486;49.992;19.164;2023-02-28T08:35:25;100188.91;;;1.63
77414;BMP280;66486;49.992;19.164;2023-02-28T08:37:51;100190.16;;;1.83
77414;BMP280;66486;49.992;19.164;2023-02-28T08:40:17;100192.38;;;1.46
77414;BMP280;66486;49.992;19.164;2023-02-28T08:42:45;100189.88;;;1.50
77414;BMP280;66486;49.992;19.164;2023-02-28T08:45:12;100193.13;;;1.56
77414;BMP280;66486;49.992;19.164;2023-02-28T08:47:38;100187.53;;;1.57
77414;BMP280;66486;49.992;19.164;2023-02-28T08:50:05;100179.25;;;1.59
77414;BMP280;66486;49.992;19.164;2023-02-28T08:52:31;100180.63;;;1.73
77414;BMP280;66486;49.992;19.164;2023-02-28T08:54:57;100182.19;;;1.74
77414;BMP280;66486;49.992;19.164;2023-02-28T08:57:23;100177.31;;;1.93
77414;BMP280;66486;49.992;19.164;2023-02-28T08:59:52;100186.38;;;1.84
77414;BMP280;66486;49.992;19.164;2023-02-28T09:02:18;100183.22;;;2.08
77414;BMP280;66486;49.992;19.164;2023-02-28T09:04:44;100187.81;;;2.28
77414;BMP280;66486;49.992;19.164;2023-02-28T09:07:13;100185.00;;;2.62
77414;BMP280;66486;49.992;19.164;2023-02-28T09:09:39;100172.25;;;2.47
77414;BMP280;66486;49.992;19.164;2023-02-28T09:12:20;100188.16;;;2.56
77414;BMP280;66486;49.992;19.164;2023-02-28T09:14:47;100187.69;;;2.53
77414;BMP280;66486;49.992;19.164;2023-02-28T09:17:12;100195.31;;;2.64
77414;BMP280;66486;49.992;19.164;2023-02-28T09:19:39;100190.63;;;2.61
77414;BMP280;66486;49.992;19.164;2023-02-28T09:22:04;100187.59;;;2.71
77414;BMP280;66486;49.992;19.164;2023-02-28T09:24:31;100189.22;;;2.63
77414;BMP280;66486;49.992;19.164;2023-02-28T09:26:57;100186.06;;;2.90
77414;BMP280;66486;49.992;19.164;2023-02-28T09:29:23;100184.06;;;2.87
77414;BMP280;66486;49.992;19.164;2023-02-28T09:31:49;100183.63;;;3.06
77414;BMP280;66486;49.992;19.164;2023-02-28T09:34:15;100189.97;;;3.14
77414;BMP280;66486;49.992;19.164;2023-02-28T09:36:43;100185.63;;;2.88
77414;BMP280;66486;49.992;19.164;2023-02-28T09:39:09;100180.31;;;3.09
77414;BMP280;66486;49.992;19.164;2023-02-28T09:41:42;100192.78;;;3.17
77414;BMP280;66486;49.992;19.164;2023-02-28T09:44:37;100188.25;;;3.50
77414;BMP280;66486;49.992;19.164;2023-02-28T09:47:17;100188.63;;;3.08
77414;BMP280;66486;49.992;19.164;2023-02-28T09:49:46;100182.63;;;2.90
77414;BMP280;66486;49.992;19.164;2023-02-28T09:52:24;100176.38;;;3.15
77414;BMP280;66486;49.992;19.164;2023-02-28T09:54:52;100183.94;;;3.04
77414;BMP280;66486;49.992;19.164;2023-02-28T09:57:32;100189.88;;;3.01
77414;BMP280;66486;49.992;19.164;2023-02-28T10:00:07;100189.59;;;3.03
77414;BMP280;66486;49.992;19.164;2023-02-28T10:05:50;100189.94;;;2.72
77414;BMP280;66486;49.992;19.164;2023-02-28T10:08:29;100198.22;;;2.71
77414;BMP280;66486;49.992;19.164;2023-02-28T10:10:59;100193.19;;;2.78
77414;BMP280;66486;49.992;19.164;2023-02-28T10:16:30;100198.91;;;3.09
77414;BMP280;66486;49.992;19.164;2023-02-28T10:19:20;100195.78;;;2.86
77414;BMP280;66486;49.992;19.164;2023-02-28T10:27:00;100192.69;;;3.46
77414;BMP280;66486;49.992;19.164;2023-02-28T10:29:28;100190.44;;;3.48
77414;BMP280;66486;49.992;19.164;2023-02-28T10:32:01;100200.97;;;3.66
77414;BMP280;66486;49.992;19.164;2023-02-28T10:34:27;100192.84;;;3.74
77414;BMP280;66486;49.992;19.164;2023-02-28T10:36:54;100190.63;;;3.64
77414;BMP280;66486;49.992;19.164;2023-02-28T10:42:03;100181.84;;;3.51
77414;BMP280;66486;49.992;19.164;2023-02-28T10:44:29;100183.78;;;3.75
77414;BMP280;66486;49.992;19.164;2023-02-28T10:46:56;100180.97;;;3.59
77414;BMP280;66486;49.992;19.164;2023-02-28T10:49:31;100179.13;;;3.39
77414;BMP280;66486;49.992;19.164;2023-02-28T10:51:59;100174.38;;;3.45
77414;BMP280;66486;49.992;19.164;2023-02-28T10:54:34;100173.28;;;3.25
77414;BMP280;66486;49.992;19.164;2023-02-28T10:57:22;100171.72;;;3.45
77414;BMP280;66486;49.992;19.164;2023-02-28T11:00:11;100171.69;;;3.66
77414;BMP280;66486;49.992;19.164;2023-02-28T11:02:39;100169.06;;;3.90
77414;BMP280;66486;49.992;19.164;2023-02-28T11:05:40;100160.41;;;3.81
77414;BMP280;66486;49.992;19.164;2023-02-28T11:08:14;100160.06;;;3.94
77414;BMP280;66486;49.992;19.164;2023-02-28T11:10:58;100156.00;;;3.85
77414;BMP280;66486;49.992;19.164;2023-02-28T11:13:30;100156.41;;;3.87
77414;BMP280;66486;49.992;19.164;2023-02-28T11:15:59;100154.19;;;3.89
77414;BMP280;66486;49.992;19.164;2023-02-28T11:18:42;100149.06;;;3.72
77414;BMP280;66486;49.992;19.164;2023-02-28T11:21:16;100146.13;;;4.09
77414;BMP280;66486;49.992;19.164;2023-02-28T11:23:43;100137.78;;;3.99
77414;BMP280;66486;49.992;19.164;2023-02-28T11:26:09;100129.16;;;4.02
77414;BMP280;66486;49.992;19.164;2023-02-28T11:28:39;100128.94;;;4.07
77414;BMP280;66486;49.992;19.164;2023-02-28T11:33:48;100121.94;;;4.27
77414;BMP280;66486;49.992;19.164;2023-02-28T11:36:30;100123.78;;;4.38
77414;BMP280;66486;49.992;19.164;2023-02-28T11:39:07;100121.25;;;4.42
77414;BMP280;66486;49.992;19.164;2023-02-28T11:41:55;100106.97;;;4.10
77414;BMP280;66486;49.992;19.164;2023-02-28T11:50:19;100108.50;;;3.99
77414;BMP280;66486;49.992;19.164;2023-02-28T11:55:23;100104.28;;;3.98
77414;BMP280;66486;49.992;19.164;2023-02-28T12:06:25;100099.75;;;3.86
77414;BMP280;66486;49.992;19.164;2023-02-28T12:11:52;100097.81;;;3.75
77414;BMP280;66486;49.992;19.164;2023-02-28T12:14:45;100092.31;;;3.68
77414;BMP280;66486;49.992;19.164;2023-02-28T12:17:51;100102.59;;;3.93
77414;BMP280;66486;49.992;19.164;2023-02-28T12:26:06;100112.06;;;4.03
77414;BMP280;66486;49.992;19.164;2023-02-28T12:28:43;100086.63;;;3.93
77414;BMP280;66486;49.992;19.164;2023-02-28T12:31:21;100085.88;;;4.05
77414;BMP280;66486;49.992;19.164;2023-02-28T12:33:55;100084.00;;;4.05
77414;BMP280;66486;49.992;19.164;2023-02-28T12:36:22;100094.97;;;4.28
77414;BMP280;66486;49.992;19.164;2023-02-28T12:38:56;100089.41;;;4.33
77414;BMP280;66486;49.992;19.164;2023-02-28T12:44:18;100095.41;;;4.30
77414;BMP280;66486;49.992;19.164;2023-02-28T12:46:51;100095.41;;;4.30
77414;BMP280;66486;49.992;19.164;2023-02-28T12:49:33;100094.44;;;4.10
77414;BMP280;66486;49.992;19.164;2023-02-28T12:52:01;100093.97;;;3.96
77414;BMP280;66486;49.992;19.164;2023-02-28T12:54:48;100098.50;;;4.20
77414;BMP280;66486;49.992;19.164;2023-02-28T13:00:34;100086.09;;;4.24
77414;BMP280;66486;49.992;19.164;2023-02-28T13:10:57;100091.56;;;4.67
77414;BMP280;66486;49.992;19.164;2023-02-28T13:13:28;100077.69;;;4.62
77414;BMP280;66486;49.992;19.164;2023-02-28T13:16:09;100078.13;;;4.64
77414;BMP280;66486;49.992;19.164;2023-02-28T13:18:38;100083.66;;;4.71
77414;BMP280;66486;49.992;19.164;2023-02-28T13:21:21;100075.63;;;4.43
77414;BMP280;66486;49.992;19.164;2023-02-28T13:47:32;100057.88;;;4.35
77414;BMP280;66486;49.992;19.164;2023-02-28T14:01:49;100037.31;;;4.76
77414;BMP280;66486;49.992;19.164;2023-02-28T14:07:02;100036.16;;;4.89
77414;BMP280;66486;49.992;19.164;2023-02-28T14:09:32;100033.97;;;4.79
77414;BMP280;66486;49.992;19.164;2023-02-28T14:15:04;100036.03;;;4.30
77414;BMP280;66486;49.992;19.164;2023-02-28T14:17:31;100033.00;;;4.43
77414;BMP280;66486;49.992;19.164;2023-02-28T14:19:58;100023.66;;;4.37
77414;BMP280;66486;49.992;19.164;2023-02-28T14:28:52;100024.38;;;4.62
77414;BMP280;66486;49.992;19.164;2023-02-28T14:31:35;100018.34;;;4.37
77414;BMP280;66486;49.992;19.164;2023-02-28T14:36:45;100024.47;;;4.26
77414;BMP280;66486;49.992;19.164;2023-02-28T14:39:21;100021.50;;;4.15
77414;BMP280;66486;49.992;19.164;2023-02-28T14:41:48;100027.50;;;4.24
77414;BMP280;66486;49.992;19.164;2023-02-28T14:44:25;100026.16;;;4.30
77414;BMP280;66486;49.992;19.164;2023-02-28T14:46:57;100023.16;;;4.32
77414;BMP280;66486;49.992;19.164;2023-02-28T14:49:32;100019.16;;;4.26
77414;BMP280;66486;49.992;19.164;2023-02-28T14:54:37;100023.63;;;4.22
77414;BMP280;66486;49.992;19.164;2023-02-28T14:57:03;100023.47;;;4.30
77414;BMP280;66486;49.992;19.164;2023-02-28T14:59:34;100024.63;;;4.17
77414;BMP280;66486;49.992;19.164;2023-02-28T15:02:22;100025.41;;;4.18
77414;BMP280;66486;49.992;19.164;2023-02-28T15:07:36;100031.31;;;3.99
77414;BMP280;66486;49.992;19.164;2023-02-28T15:12:36;100027.88;;;3.86
77414;BMP280;66486;49.992;19.164;2023-02-28T15:15:03;100032.09;;;3.87
77414;BMP280;66486;49.992;19.164;2023-02-28T15:17:29;100020.41;;;4.04
77414;BMP280;66486;49.992;19.164;2023-02-28T15:19:56;100013.34;;;3.84
77414;BMP280;66486;49.992;19.164;2023-02-28T15:22:35;100015.44;;;3.78
77414;BMP280;66486;49.992;19.164;2023-02-28T15:25:02;100016.47;;;3.74
77414;BMP280;66486;49.992;19.164;2023-02-28T15:27:32;100015.66;;;3.49
77414;BMP280;66486;49.992;19.164;2023-02-28T15:30:07;100016.25;;;3.67
77414;BMP280;66486;49.992;19.164;2023-02-28T15:32:36;100012.69;;;3.50
77414;BMP280;66486;49.992;19.164;2023-02-28T15:35:28;100014.41;;;3.22
77414;BMP280;66486;49.992;19.164;2023-02-28T15:37:58;100023.28;;;3.26
77414;BMP280;66486;49.992;19.164;2023-02-28T15:40:31;100016.28;;;3.22
77414;BMP280;66486;49.992;19.164;2023-02-28T15:43:17;100011.66;;;3.19
77414;BMP280;66486;49.992;19.164;2023-02-28T15:45:51;100012.66;;;3.14
77414;BMP280;66486;49.992;19.164;2023-02-28T15:48:21;100016.09;;;3.15
77414;BMP280;66486;49.992;19.164;2023-02-28T15:51:16;100009.69;;;2.95
77414;BMP280;66486;49.992;19.164;2023-02-28T15:53:48;100021.06;;;3.16
77414;BMP280;66486;49.992;19.164;2023-02-28T15:56:24;100021.38;;;3.27
77414;BMP280;66486;49.992;19.164;2023-02-28T15:58:56;100023.84;;;3.20
77414;BMP280;66486;49.992;19.164;2023-02-28T16:01:29;100028.53;;;3.02
77414;BMP280;66486;49.992;19.164;2023-02-28T16:04:05;100023.59;;;2.80
77414;BMP280;66486;49.992;19.164;2023-02-28T16:09:18;100026.38;;;2.63
77414;BMP280;66486;49.992;19.164;2023-02-28T16:11:47;100033.06;;;2.89
77414;BMP280;66486;49.992;19.164;2023-02-28T16:14:22;100028.47;;;2.78
77414;BMP280;66486;49.992;19.164;2023-02-28T16:16:55;100035.19;;;2.75
77414;BMP280;66486;49.992;19.164;2023-02-28T16:19:22;100026.81;;;2.52
77414;BMP280;66486;49.992;19.164;2023-02-28T16:21:49;100026.16;;;2.56
77414;BMP280;66486;49.992;19.164;2023-02-28T16:24:15;100023.94;;;2.58
77414;BMP280;66486;49.992;19.164;2023-02-28T16:26:45;100018.63;;;2.37
77414;BMP280;66486;49.992;19.164;2023-02-28T16:29:29;100034.25;;;2.38
77414;BMP280;66486;49.992;19.164;2023-02-28T16:31:56;100028.72;;;2.43